Time;durP1;ratioP1;P1;durP2;ratioP2;P2;SDS_P1;SDS_P2;PMS_P1;PMS_P2;Temp;Humidity;BMP_temperature;BMP_pressure;BME280_temperature;BME280_humidity;BME280_pressure;Samples;Min_cycle;Max_cycle;Signal;HPM_P1;HPM_P2
2023/06/10 00:02:14;;;;;;;7.43;3.70;;;20.70;52.20;;;;;;4965245;28;20308;-78
2023/06/10 00:04:41;;;;;;;7.57;3.92;;;20.70;52.20;;;;;;4969102;28;20055;-78
2023/06/10 00:07:09;;;;;;;6.53;3.65;;;20.60;52.20;;;;;;4953811;28;20051;-77
2023/06/10 00:09:37;;;;;;;8.35;4.63;;;20.60;52.40;;;;;;4968426;28;20047;-77
2023/06/10 00:12:05;;;;;;;9.37;3.77;;;20.60;52.40;;;;;;4968459;28;20454;-77
2023/06/10 00:14:32;;;;;;;8.57;4.00;;;20.50;52.60;;;;;;4952490;28;20924;-77
2023/06/10 00:16:59;;;;;;;6.82;3.90;;;20.50;52.70;;;;;;4967587;28;20087;-77
2023/06/10 00:19:28;;;;;;;8.68;3.95;;;20.50;52.70;;;;;;4965352;28;20054;-78
2023/06/10 00:21:57;;;;;;;6.95;3.80;;;20.50;52.70;;;;;;4964633;28;20721;-78
2023/06/10 00:24:25;;;;;;;8.93;4.40;;;20.50;52.70;;;;;;4964939;28;20114;-77
2023/06/10 00:26:52;;;;;;;7.82;4.30;;;20.50;52.80;;;;;;4966448;28;20286;-78
2023/06/10 00:29:20;;;;;;;8.20;4.10;;;20.40;53.00;;;;;;4965341;28;20566;-78
2023/06/10 00:31:47;;;;;;;9.13;4.30;;;20.40;53.00;;;;;;4966410;28;20078;-78
2023/06/10 00:34:14;;;;;;;7.63;4.07;;;20.30;53.00;;;;;;4950355;28;20425;-78
2023/06/10 00:36:43;;;;;;;7.03;4.00;;;20.30;53.00;;;;;;4964762;28;20067;-77
2023/06/10 00:39:10;;;;;;;7.43;4.18;;;20.30;53.10;;;;;;4975523;28;20256;-78
2023/06/10 00:41:39;;;;;;;9.15;4.15;;;20.30;53.00;;;;;;4967420;28;20123;-77
2023/06/10 00:44:06;;;;;;;9.43;4.40;;;20.20;53.30;;;;;;4967219;28;20454;-78
2023/06/10 00:46:33;;;;;;;8.43;4.05;;;20.20;53.40;;;;;;4951655;28;20150;-78
2023/06/10 00:49:01;;;;;;;9.27;4.40;;;20.10;53.50;;;;;;4967960;28;20062;-78
2023/06/10 00:51:28;;;;;;;9.25;4.28;;;20.10;53.60;;;;;;4951442;28;20256;-77
2023/06/10 00:53:55;;;;;;;8.73;4.25;;;20.10;53.60;;;;;;4951684;28;20585;-78
2023/06/10 00:56:23;;;;;;;8.23;4.18;;;20.00;53.70;;;;;;4948756;28;20059;-78
2023/06/10 00:58:51;;;;;;;7.97;3.95;;;20.00;53.90;;;;;;4964506;28;20061;-77
2023/06/10 01:01:19;;;;;;;8.97;4.60;;;20.00;53.90;;;;;;4942987;28;20614;-77
2023/06/10 01:03:47;;;;;;;8.18;4.50;;;20.00;53.90;;;;;;4969037;28;20465;-78
2023/06/10 01:06:26;;;;;;;9.70;4.65;;;19.90;53.90;;;;;;4959765;28;20592;-78
2023/06/10 01:09:02;;;;;;;9.40;4.45;;;19.90;54.00;;;;;;4951756;28;20051;-78
2023/06/10 01:11:35;;;;;;;8.02;4.40;;;19.90;54.00;;;;;;4962301;28;20059;-78
2023/06/10 01:14:07;;;;;;;8.63;4.53;;;19.90;54.10;;;;;;4945455;28;20075;-78
2023/06/10 01:16:35;;;;;;;8.73;4.63;;;19.80;54.30;;;;;;4951120;28;20752;-77
2023/06/10 01:19:03;;;;;;;9.30;4.50;;;19.80;54.30;;;;;;4969326;28;20052;-78
2023/06/10 01:21:32;;;;;;;10.35;4.35;;;19.70;54.30;;;;;;4964234;28;20150;-78
2023/06/10 01:23:59;;;;;;;8.45;4.22;;;19.70;54.30;;;;;;4967573;28;20086;-78
2023/06/10 01:26:30;;;;;;;9.03;4.30;;;19.70;54.30;;;;;;4967124;28;20497;-78
2023/06/10 01:29:04;;;;;;;8.48;4.68;;;19.70;54.40;;;;;;4966909;28;20307;-78
2023/06/10 01:31:37;;;;;;;9.60;4.90;;;19.60;54.70;;;;;;4942637;28;20311;-78
2023/06/10 01:34:09;;;;;;;9.70;4.82;;;19.50;54.80;;;;;;4961422;28;20933;-78
2023/06/10 01:36:39;;;;;;;7.70;4.38;;;19.50;54.90;;;;;;4949242;28;20570;-78
2023/06/10 01:39:11;;;;;;;8.60;4.50;;;19.50;54.90;;;;;;4963884;28;20525;-78
2023/06/10 01:41:40;;;;;;;11.82;5.30;;;19.50;54.80;;;;;;4960012;28;20296;-78
2023/06/10 01:44:06;;;;;;;9.05;4.82;;;19.50;55.00;;;;;;4963817;28;20048;-78
2023/06/10 01:46:33;;;;;;;9.27;4.55;;;19.40;54.90;;;;;;4982637;28;20169;-78
2023/06/10 01:49:00;;;;;;;8.50;4.38;;;19.40;55.00;;;;;;4968657;28;20058;-77
2023/06/10 01:51:27;;;;;;;11.53;4.57;;;19.30;55.10;;;;;;4949155;28;20518;-78
2023/06/10 01:53:55;;;;;;;10.30;4.85;;;19.30;55.10;;;;;;4958496;28;20780;-78
2023/06/10 01:56:22;;;;;;;9.18;4.50;;;19.20;55.10;;;;;;4941886;28;20172;-78
2023/06/10 01:58:49;;;;;;;8.55;4.22;;;19.20;55.10;;;;;;4935079;28;20052;-78
2023/06/10 02:01:17;;;;;;;8.45;4.35;;;19.20;55.10;;;;;;4934889;28;20055;-78
2023/06/10 02:03:44;;;;;;;11.27;4.70;;;19.10;55.20;;;;;;4963304;28;20055;-78
2023/06/10 02:06:11;;;;;;;9.20;4.47;;;19.10;55.40;;;;;;4969399;28;20254;-78
2023/06/10 02:08:37;;;;;;;8.98;4.50;;;19.10;55.30;;;;;;4970080;28;20135;-78
2023/06/10 02:11:06;;;;;;;9.13;4.30;;;19.00;55.40;;;;;;4969406;28;20059;-78
2023/06/10 02:13:33;;;;;;;8.63;4.40;;;19.00;55.50;;;;;;4950583;28;20063;-78
2023/06/10 02:16:00;;;;;;;8.57;4.20;;;18.90;55.50;;;;;;4957775;28;20134;-78
2023/06/10 02:18:30;;;;;;;12.05;4.82;;;18.90;55.50;;;;;;4968799;28;20256;-78
2023/06/10 02:20:56;;;;;;;10.85;4.30;;;18.80;55.70;;;;;;4951377;28;20079;-78
2023/06/10 02:23:23;;;;;;;9.35;4.85;;;18.80;55.70;;;;;;4952995;28;20090;-78
2023/06/10 02:25:50;;;;;;;8.68;4.35;;;18.80;55.80;;;;;;4966353;28;20649;-78
2023/06/10 02:28:19;;;;;;;7.83;4.73;;;18.70;55.80;;;;;;4969489;28;20496;-78
2023/06/10 02:30:47;;;;;;;9.10;4.35;;;18.70;55.80;;;;;;4937753;28;20818;-78
2023/06/10 02:33:14;;;;;;;8.32;4.25;;;18.70;56.00;;;;;;4950538;28;20052;-78
2023/06/10 02:35:42;;;;;;;10.18;4.30;;;18.70;55.90;;;;;;4950800;28;20323;-78
2023/06/10 02:38:09;;;;;;;10.82;4.82;;;18.70;55.90;;;;;;4950067;28;20064;-78
2023/06/10 02:40:36;;;;;;;7.40;4.00;;;18.60;56.00;;;;;;4966535;28;20172;-77
2023/06/10 02:43:03;;;;;;;10.00;4.60;;;18.60;56.00;;;;;;4950096;28;20766;-78
2023/06/10 02:45:32;;;;;;;8.57;4.70;;;18.50;56.20;;;;;;4958302;28;20051;-78
2023/06/10 02:48:00;;;;;;;7.93;4.22;;;18.50;56.40;;;;;;4983731;28;20051;-78
2023/06/10 02:50:28;;;;;;;8.43;4.78;;;18.50;56.20;;;;;;4949934;28;20138;-78
2023/06/10 02:53:03;;;;;;;10.97;4.67;;;18.50;56.40;;;;;;4942095;28;20521;-78
2023/06/10 02:55:30;;;;;;;9.15;4.07;;;18.40;56.30;;;;;;4963471;28;20244;-77
2023/06/10 02:58:02;;;;;;;9.15;4.40;;;18.40;56.40;;;;;;4952254;28;20202;-77
2023/06/10 03:00:30;;;;;;;8.50;4.03;;;18.30;56.50;;;;;;4939179;28;20515;-78
2023/06/10 03:03:03;;;;;;;10.18;4.00;;;18.30;56.60;;;;;;4949980;28;20051;-78
2023/06/10 03:05:34;;;;;;;8.80;4.37;;;18.30;56.80;;;;;;4967158;28;20047;-77
2023/06/10 03:08:05;;;;;;;7.68;4.40;;;18.20;56.80;;;;;;4964753;28;20450;-78
2023/06/10 03:10:34;;;;;;;8.90;4.43;;;18.20;57.00;;;;;;4963283;28;20057;-77
2023/06/10 03:13:03;;;;;;;8.95;4.03;;;18.20;57.10;;;;;;4964375;28;20063;-77
2023/06/10 03:15:32;;;;;;;9.32;4.03;;;18.10;57.10;;;;;;4952047;28;20079;-78
2023/06/10 03:18:02;;;;;;;8.03;3.93;;;18.10;57.30;;;;;;4968986;28;20470;-78
2023/06/10 03:20:30;;;;;;;9.95;3.95;;;18.00;57.40;;;;;;4944576;28;20717;-78
2023/06/10 03:22:57;;;;;;;7.72;4.35;;;18.00;57.40;;;;;;4964546;28;20051;-78
2023/06/10 03:25:25;;;;;;;8.48;4.32;;;18.00;57.50;;;;;;4948373;28;20056;-78
2023/06/10 03:27:55;;;;;;;10.20;4.38;;;18.00;57.70;;;;;;4966405;28;20048;-78
2023/06/10 03:30:22;;;;;;;8.17;3.93;;;17.90;57.80;;;;;;4946590;28;20146;-78
2023/06/10 03:32:49;;;;;;;9.55;4.20;;;17.80;58.10;;;;;;4948106;28;20299;-77
2023/06/10 03:35:20;;;;;;;7.85;4.10;;;17.80;58.20;;;;;;4968336;28;20051;-77
2023/06/10 03:37:47;;;;;;;7.65;3.83;;;17.70;58.20;;;;;;4953087;28;20048;-78
2023/06/10 03:40:14;;;;;;;9.35;4.20;;;17.70;58.30;;;;;;4941782;28;20052;-77
2023/06/10 03:42:44;;;;;;;8.60;4.10;;;17.60;58.40;;;;;;4964847;28;20055;-78
2023/06/10 03:45:13;;;;;;;9.07;4.30;;;17.60;58.50;;;;;;4952244;28;20339;-78
2023/06/10 03:47:41;;;;;;;7.68;3.88;;;17.60;58.70;;;;;;4965020;28;20084;-77
2023/06/10 03:50:11;;;;;;;9.30;4.10;;;17.50;58.70;;;;;;4984510;28;20062;-77
2023/06/10 03:52:44;;;;;;;8.57;4.13;;;17.60;58.80;;;;;;4952863;28;20488;-77
2023/06/10 03:55:13;;;;;;;7.93;3.93;;;17.50;59.00;;;;;;4942225;28;20056;-77
2023/06/10 03:57:42;;;;;;;9.82;3.90;;;17.50;58.90;;;;;;4964515;28;20253;-77
2023/06/10 04:00:11;;;;;;;8.05;3.45;;;17.50;59.00;;;;;;4968802;28;20540;-78
2023/06/10 04:02:45;;;;;;;6.28;4.00;;;17.50;59.20;;;;;;4968731;28;20127;-77
2023/06/10 04:05:16;;;;;;;8.85;3.90;;;17.50;59.30;;;;;;4952340;28;20130;-77
2023/06/10 04:07:44;;;;;;;9.53;3.93;;;17.50;59.50;;;;;;4952646;28;20639;-78
2023/06/10 04:10:12;;;;;;;9.07;4.10;;;17.40;59.60;;;;;;4962335;28;20263;-78
2023/06/10 04:12:39;;;;;;;9.73;4.10;;;17.40;59.70;;;;;;4968172;28;20513;-78
2023/06/10 04:15:08;;;;;;;7.85;3.80;;;17.40;59.80;;;;;;4959340;28;20139;-77
2023/06/10 04:17:35;;;;;;;8.68;3.95;;;17.40;60.00;;;;;;4964201;28;20067;-78
2023/06/10 04:20:06;;;;;;;9.00;4.07;;;17.40;60.10;;;;;;4984860;28;20083;-78
2023/06/10 04:22:33;;;;;;;9.25;4.20;;;17.40;60.20;;;;;;4966366;28;20375;-78
2023/06/10 04:25:02;;;;;;;7.57;3.65;;;17.40;60.40;;;;;;4952035;28;20510;-78
2023/06/10 04:27:30;;;;;;;7.65;3.90;;;17.40;60.50;;;;;;4951977;28;20047;-78
2023/06/10 04:29:57;;;;;;;9.05;4.18;;;17.40;60.60;;;;;;4967938;28;20055;-78
2023/06/10 04:32:24;;;;;;;7.70;4.00;;;17.30;60.80;;;;;;4966114;28;20047;-78
2023/06/10 04:34:51;;;;;;;8.95;4.00;;;17.30;60.90;;;;;;4951898;28;20359;-78
2023/06/10 04:37:19;;;;;;;14.48;4.63;;;17.30;61.10;;;;;;4947553;28;20752;-77
2023/06/10 04:39:47;;;;;;;9.82;4.43;;;17.20;61.30;;;;;;4948724;28;20128;-77
2023/06/10 04:42:16;;;;;;;13.63;4.40;;;17.20;61.50;;;;;;4966977;28;20481;-78
2023/06/10 04:44:43;;;;;;;11.97;4.40;;;17.20;61.80;;;;;;4967897;28;20106;-78
2023/06/10 04:47:10;;;;;;;9.38;3.85;;;17.20;62.10;;;;;;4932782;28;20255;-78
2023/06/10 04:49:37;;;;;;;9.10;4.00;;;17.20;62.00;;;;;;4950263;28;20051;-78
2023/06/10 04:52:05;;;;;;;8.55;4.10;;;17.20;62.00;;;;;;4948494;28;20103;-78
2023/06/10 04:54:38;;;;;;;9.27;4.20;;;17.20;62.30;;;;;;4954655;28;20077;-78
2023/06/10 04:57:07;;;;;;;8.93;3.97;;;17.20;62.10;;;;;;4967004;28;20051;-78
2023/06/10 04:59:37;;;;;;;9.15;3.92;;;17.20;62.30;;;;;;4968181;28;20281;-78
2023/06/10 05:02:04;;;;;;;10.63;4.70;;;17.20;62.60;;;;;;4966883;28;20063;-78
2023/06/10 05:04:32;;;;;;;9.82;4.30;;;17.20;62.70;;;;;;4965845;28;20051;-80
2023/06/10 05:07:00;;;;;;;9.85;4.32;;;17.20;63.00;;;;;;4983560;28;20062;-80
2023/06/10 05:09:27;;;;;;;8.17;3.97;;;17.20;63.20;;;;;;4967117;28;20849;-80
2023/06/10 05:11:55;;;;;;;10.00;3.97;;;17.20;63.40;;;;;;4959130;28;20302;-80
2023/06/10 05:14:22;;;;;;;10.35;3.78;;;17.10;63.70;;;;;;4961468;28;20544;-81
2023/06/10 05:16:51;;;;;;;9.20;4.03;;;17.10;63.70;;;;;;4961379;28;20528;-80
2023/06/10 05:19:19;;;;;;;9.15;4.22;;;17.20;63.90;;;;;;4963749;28;20151;-81
2023/06/10 05:21:46;;;;;;;9.33;4.30;;;17.20;64.00;;;;;;4966919;28;20062;-80
2023/06/10 05:24:13;;;;;;;10.65;4.43;;;17.20;64.20;;;;;;4967918;28;20302;-80
2023/06/10 05:26:41;;;;;;;10.10;4.60;;;17.20;64.50;;;;;;4968940;28;20522;-80
2023/06/10 05:29:09;;;;;;;8.93;4.07;;;17.10;64.70;;;;;;4968045;28;20063;-81
2023/06/10 05:31:35;;;;;;;10.43;4.78;;;17.10;65.00;;;;;;4968817;28;20066;-80
2023/06/10 05:34:04;;;;;;;8.60;3.93;;;17.10;64.90;;;;;;4995962;28;20055;-80
2023/06/10 05:36:32;;;;;;;9.40;4.13;;;17.10;65.20;;;;;;4963094;28;20248;-80
2023/06/10 05:38:59;;;;;;;9.55;4.38;;;17.10;65.40;;;;;;4965719;28;20808;-80
2023/06/10 05:41:26;;;;;;;8.27;3.70;;;17.10;65.50;;;;;;4964159;28;20465;-84
2023/06/10 05:43:53;;;;;;;8.70;4.20;;;17.10;65.80;;;;;;4965579;28;20076;-78
2023/06/10 05:46:21;;;;;;;6.83;3.50;;;17.10;65.80;;;;;;4965637;28;20062;-78
2023/06/10 05:48:48;;;;;;;9.73;4.35;;;17.10;66.00;;;;;;4965602;28;20276;-78
2023/06/10 05:51:16;;;;;;;8.38;3.65;;;17.20;66.00;;;;;;4965314;28;20509;-79
2023/06/10 05:53:43;;;;;;;10.02;4.10;;;17.20;66.20;;;;;;4950497;28;20110;-79
2023/06/10 05:56:10;;;;;;;10.23;4.07;;;17.20;66.20;;;;;;4966157;28;20454;-79
2023/06/10 05:58:37;;;;;;;10.53;4.27;;;17.20;66.20;;;;;;4965319;28;20960;-78
2023/06/10 06:01:04;;;;;;;11.05;4.30;;;17.20;66.40;;;;;;4966904;28;20282;-78
2023/06/10 06:03:31;;;;;;;10.30;4.60;;;17.20;66.50;;;;;;4966713;28;21074;-79
2023/06/10 06:05:58;;;;;;;8.60;4.28;;;17.20;66.40;;;;;;4966818;28;20537;-78
2023/06/10 06:08:27;;;;;;;10.80;4.38;;;17.30;66.50;;;;;;4965180;28;20563;-79
2023/06/10 06:10:54;;;;;;;9.70;4.20;;;17.40;66.80;;;;;;4954695;28;20051;-82
2023/06/10 06:13:21;;;;;;;9.30;4.80;;;17.40;66.70;;;;;;4965684;28;20258;-78
2023/06/10 06:15:48;;;;;;;8.77;4.20;;;17.40;66.70;;;;;;4962405;28;20059;-78
2023/06/10 06:18:15;;;;;;;7.88;4.07;;;17.40;66.80;;;;;;4964623;28;20051;-78
2023/06/10 06:20:43;;;;;;;9.30;4.65;;;17.50;66.90;;;;;;4959207;28;20058;-77
2023/06/10 06:23:10;;;;;;;8.47;4.20;;;17.50;66.90;;;;;;4962140;28;20536;-77
2023/06/10 06:25:39;;;;;;;8.55;4.20;;;17.50;66.90;;;;;;4994821;28;20255;-77
2023/06/10 06:28:07;;;;;;;9.00;4.63;;;17.50;67.00;;;;;;4963185;28;20219;-76
2023/06/10 06:30:34;;;;;;;8.77;4.63;;;17.60;67.10;;;;;;4958060;28;20131;-77
2023/06/10 06:33:01;;;;;;;9.93;4.55;;;17.60;67.10;;;;;;4968094;28;20054;-80
2023/06/10 06:35:28;;;;;;;13.17;5.37;;;17.70;67.10;;;;;;4969954;28;20114;-80
2023/06/10 06:37:55;;;;;;;10.90;4.57;;;17.80;67.00;;;;;;4968656;28;20808;-79
2023/06/10 06:40:26;;;;;;;11.23;5.05;;;17.80;66.90;;;;;;4949016;28;20048;-78
2023/06/10 06:42:55;;;;;;;9.75;4.40;;;17.80;66.80;;;;;;4957590;28;20056;-79
2023/06/10 06:45:37;;;;;;;11.52;4.80;;;17.90;66.90;;;;;;4964221;28;20055;-79
2023/06/10 06:48:05;;;;;;;10.23;4.50;;;18.00;66.90;;;;;;4967461;28;20908;-77
2023/06/10 06:50:32;;;;;;;10.50;4.80;;;18.00;66.70;;;;;;4968937;28;20295;-79
2023/06/10 06:52:59;;;;;;;9.82;4.72;;;18.00;66.60;;;;;;4968824;28;20059;-79
2023/06/10 06:55:27;;;;;;;10.63;4.78;;;18.10;66.80;;;;;;4970365;28;20057;-78
2023/06/10 06:57:55;;;;;;;9.52;4.50;;;18.10;66.80;;;;;;4970659;28;20859;-78
2023/06/10 07:00:23;;;;;;;10.13;4.80;;;18.10;66.80;;;;;;4970934;28;20518;-80
2023/06/10 07:02:50;;;;;;;9.90;5.07;;;18.20;66.70;;;;;;5002316;28;20256;-80
2023/06/10 07:05:17;;;;;;;9.38;5.07;;;18.20;66.60;;;;;;4971443;28;20149;-80
2023/06/10 07:07:44;;;;;;;10.25;4.60;;;18.30;66.40;;;;;;4971551;28;20051;-80
2023/06/10 07:10:11;;;;;;;9.07;4.22;;;18.30;66.70;;;;;;4968864;28;20131;-78
2023/06/10 07:12:39;;;;;;;8.13;4.10;;;18.30;66.60;;;;;;4968973;28;20047;-75
2023/06/10 07:15:09;;;;;;;9.43;4.40;;;18.40;66.30;;;;;;4964183;28;20252;-76
2023/06/10 07:17:36;;;;;;;9.05;4.38;;;18.40;66.30;;;;;;4959605;28;20130;-78
2023/06/10 07:20:04;;;;;;;10.25;4.18;;;18.50;66.20;;;;;;4965413;28;20150;-83
2023/06/10 07:22:31;;;;;;;7.72;4.30;;;18.50;66.10;;;;;;4966296;28;20138;-82
2023/06/10 07:24:58;;;;;;;8.40;4.43;;;18.60;66.40;;;;;;4949972;28;20047;-83
2023/06/10 07:27:25;;;;;;;8.18;4.45;;;18.60;66.50;;;;;;4966373;28;20258;-84
2023/06/10 07:29:53;;;;;;;8.65;4.38;;;18.60;66.40;;;;;;4967425;28;20178;-83
2023/06/10 07:32:23;;;;;;;9.45;4.20;;;18.70;66.40;;;;;;4996732;28;20141;-83
2023/06/10 07:34:50;;;;;;;9.43;4.30;;;18.80;66.40;;;;;;4952862;28;20062;-82
2023/06/10 07:37:19;;;;;;;11.67;4.47;;;18.80;66.10;;;;;;4970536;28;20079;-83
2023/06/10 07:39:46;;;;;;;9.00;4.18;;;18.80;66.10;;;;;;4969748;28;20291;-83
2023/06/10 07:42:13;;;;;;;8.57;4.05;;;18.90;66.30;;;;;;4969134;28;20417;-83
2023/06/10 07:44:40;;;;;;;9.15;4.18;;;18.90;66.20;;;;;;4950959;28;20079;-83
2023/06/10 07:47:07;;;;;;;80.35;10.30;;;19.00;66.00;;;;;;4968290;28;20533;-83
2023/06/10 07:49:35;;;;;;;13.57;4.50;;;19.10;65.90;;;;;;4966358;28;20079;-80
2023/06/10 07:52:02;;;;;;;9.68;3.70;;;19.10;65.80;;;;;;4967342;28;20258;-80
2023/06/10 07:54:29;;;;;;;8.88;4.30;;;19.10;65.70;;;;;;4968317;28;20684;-81
2023/06/10 07:56:57;;;;;;;9.13;4.20;;;19.20;65.70;;;;;;4965956;28;20635;-82
2023/06/10 07:59:25;;;;;;;9.93;4.50;;;19.30;65.60;;;;;;4967666;28;20086;-82
2023/06/10 08:01:52;;;;;;;8.93;4.33;;;19.30;65.50;;;;;;4998081;28;20059;-82
2023/06/10 08:04:20;;;;;;;9.82;4.43;;;19.40;65.60;;;;;;4966368;28;20299;-84
2023/06/10 08:06:48;;;;;;;8.70;4.35;;;19.40;65.60;;;;;;4957478;28;20047;-83
2023/06/10 08:09:15;;;;;;;29.58;6.60;;;19.50;65.40;;;;;;4970062;28;20059;-81
2023/06/10 08:11:42;;;;;;;11.50;4.80;;;19.50;65.10;;;;;;5000669;28;20062;-81
2023/06/10 08:14:09;;;;;;;8.50;4.80;;;19.50;64.80;;;;;;4970508;28;20081;-82
2023/06/10 08:16:36;;;;;;;10.07;5.25;;;19.70;64.80;;;;;;4970414;28;20860;-83
2023/06/10 08:19:03;;;;;;;9.98;4.60;;;19.70;64.70;;;;;;4955110;28;20054;-83
2023/06/10 08:21:31;;;;;;;10.32;5.53;;;19.70;64.60;;;;;;4968088;28;20136;-83
2023/06/10 08:23:59;;;;;;;10.85;5.53;;;19.80;64.50;;;;;;4968958;28;20059;-85
2023/06/10 08:26:26;;;;;;;10.70;5.50;;;19.90;64.50;;;;;;4968362;28;20083;-83
2023/06/10 08:28:55;;;;;;;9.20;4.75;;;19.90;64.30;;;;;;5001386;28;20293;-82
2023/06/10 08:31:22;;;;;;;19.42;5.13;;;20.00;63.90;;;;;;5001067;28;20059;-85
2023/06/10 08:33:49;;;;;;;8.38;4.80;;;20.00;63.50;;;;;;5001004;28;20051;-85
2023/06/10 08:36:17;;;;;;;16.92;5.40;;;20.00;63.40;;;;;;4951375;28;20082;-86
2023/06/10 08:38:44;;;;;;;9.47;4.73;;;20.10;63.60;;;;;;4967091;28;20876;-85
2023/06/10 08:41:17;;;;;;;10.02;4.57;;;20.20;63.30;;;;;;4950916;28;20654;-84
2023/06/10 08:43:46;;;;;;;7.43;4.28;;;20.30;63.00;;;;;;4955609;28;20233;-86
2023/06/10 08:46:15;;;;;;;7.68;4.00;;;20.30;62.50;;;;;;4952220;28;20106;-87
2023/06/10 08:48:44;;;;;;;7.35;4.25;;;20.50;62.10;;;;;;4968118;28;20081;-85
2023/06/10 08:51:12;;;;;;;9.57;4.03;;;20.50;61.80;;;;;;4996542;28;20114;-84
2023/06/10 08:53:47;;;;;;;7.40;4.13;;;20.50;61.30;;;;;;4963092;28;20274;-85
2023/06/10 08:56:16;;;;;;;7.07;4.38;;;20.60;61.00;;;;;;4963677;28;20078;-86
2023/06/10 08:58:44;;;;;;;9.57;4.05;;;20.60;60.60;;;;;;4950541;28;20054;-86
2023/06/10 09:01:12;;;;;;;7.35;4.13;;;20.70;60.40;;;;;;4966145;28;20078;-83
2023/06/10 09:03:40;;;;;;;7.20;4.10;;;20.80;60.30;;;;;;4966973;28;20542;-84
2023/06/10 09:06:08;;;;;;;8.55;4.00;;;20.90;60.30;;;;;;4962458;28;20272;-86
2023/06/10 09:08:35;;;;;;;8.40;4.90;;;21.00;59.30;;;;;;4967379;28;20055;-84
2023/06/10 09:11:03;;;;;;;9.32;4.10;;;21.10;59.10;;;;;;4966390;28;20054;-84
2023/06/10 09:13:31;;;;;;;8.15;3.90;;;21.10;58.60;;;;;;4962812;28;20063;-84
2023/06/10 09:16:00;;;;;;;8.73;3.97;;;21.20;58.00;;;;;;4976376;28;20088;-84
2023/06/10 09:18:28;;;;;;;10.55;4.10;;;21.30;57.60;;;;;;4960063;28;20287;-88
2023/06/10 09:20:55;;;;;;;7.70;4.05;;;21.40;57.40;;;;;;4949579;28;20554;-79
2023/06/10 09:23:22;;;;;;;8.38;4.07;;;21.50;57.40;;;;;;4951565;28;20055;-81
2023/06/10 09:25:58;;;;;;;7.75;4.00;;;21.50;57.10;;;;;;4948875;28;20055;-81
2023/06/10 09:28:25;;;;;;;8.20;4.00;;;21.70;57.00;;;;;;4953081;28;20098;-81
2023/06/10 09:31:04;;;;;;;7.45;4.03;;;21.70;57.20;;;;;;4961628;28;20271;-81
2023/06/10 09:33:32;;;;;;;8.85;4.28;;;21.90;57.00;;;;;;4966521;28;20051;-81
2023/06/10 09:36:01;;;;;;;6.45;3.67;;;21.90;57.10;;;;;;4950488;28;20051;-81
2023/06/10 09:38:32;;;;;;;9.43;3.85;;;21.90;57.20;;;;;;4966599;28;20678;-81
2023/06/10 09:41:00;;;;;;;7.17;3.90;;;22.00;57.10;;;;;;4967694;28;20504;-81
2023/06/10 09:43:41;;;;;;;8.70;3.78;;;22.00;56.60;;;;;;4968031;28;20284;-81
2023/06/10 09:46:16;;;;;;;7.03;3.55;;;22.10;55.80;;;;;;4967967;28;20227;-81
2023/06/10 09:48:44;;;;;;;7.05;3.30;;;22.20;55.30;;;;;;4969144;28;20051;-81
2023/06/10 09:51:11;;;;;;;6.53;3.42;;;22.20;54.20;;;;;;4967749;28;20059;-81
2023/06/10 09:53:38;;;;;;;6.47;3.53;;;22.30;54.20;;;;;;4967571;28;20059;-81
2023/06/10 09:56:06;;;;;;;6.50;2.97;;;22.30;54.00;;;;;;4964669;28;20256;-81
2023/06/10 09:58:38;;;;;;;7.15;3.40;;;22.40;53.30;;;;;;4966923;28;20062;-82
2023/06/10 10:01:10;;;;;;;7.22;3.40;;;22.50;53.10;;;;;;4969353;28;20532;-81
2023/06/10 10:03:46;;;;;;;6.53;3.40;;;22.50;53.20;;;;;;5001916;28;20062;-82
2023/06/10 10:06:13;;;;;;;7.20;3.50;;;22.50;52.90;;;;;;4969804;28;20174;-81
2023/06/10 10:08:40;;;;;;;5.95;3.35;;;22.60;52.60;;;;;;5001813;28;20278;-82
2023/06/10 10:11:07;;;;;;;6.22;3.35;;;22.60;52.50;;;;;;4965891;28;20441;-81
2023/06/10 10:13:35;;;;;;;8.95;3.38;;;22.70;52.60;;;;;;4970889;28;20615;-81
2023/06/10 10:16:07;;;;;;;10.38;3.38;;;22.80;51.90;;;;;;4971453;28;20067;-81
2023/06/10 10:18:39;;;;;;;5.67;2.70;;;22.80;51.90;;;;;;4969736;28;20066;-81
2023/06/10 10:21:14;;;;;;;6.43;3.15;;;22.90;51.60;;;;;;4966304;28;20275;-82
2023/06/10 10:23:54;;;;;;;7.13;3.30;;;23.00;50.50;;;;;;4970819;28;20466;-82
2023/06/10 10:26:25;;;;;;;5.57;2.92;;;23.10;50.70;;;;;;4965025;28;20059;-82
2023/06/10 10:28:59;;;;;;;6.32;2.53;;;23.20;50.20;;;;;;4970975;28;20059;-82
2023/06/10 10:31:30;;;;;;;5.57;3.10;;;23.30;49.50;;;;;;4970361;28;20062;-82
2023/06/10 10:34:00;;;;;;;6.07;3.22;;;23.40;49.30;;;;;;4968020;28;20266;-81
2023/06/10 10:36:28;;;;;;;7.53;3.40;;;23.40;49.50;;;;;;4970697;28;20879;-82
2023/06/10 10:38:57;;;;;;;9.35;3.60;;;23.50;49.20;;;;;;4970727;28;20872;-81
2023/06/10 10:41:26;;;;;;;98.85;10.95;;;23.60;48.50;;;;;;4970199;28;20118;-81
2023/06/10 10:43:54;;;;;;;8.83;2.97;;;23.60;48.10;;;;;;4959307;28;20062;-81
2023/06/10 10:46:21;;;;;;;6.78;2.83;;;23.80;47.40;;;;;;4980175;28;20274;-82
2023/06/10 10:48:53;;;;;;;7.57;2.70;;;23.80;46.00;;;;;;4963353;28;20146;-82
2023/06/10 10:51:23;;;;;;;6.03;2.78;;;23.90;45.20;;;;;;4968763;28;20086;-81
2023/06/10 10:54:13;;;;;;;14.73;3.15;;;24.00;44.90;;;;;;4967614;28;20058;-82
2023/06/10 10:56:41;;;;;;;5.87;3.00;;;24.00;45.70;;;;;;4967741;28;20588;-81
2023/06/10 10:59:09;;;;;;;4.75;2.50;;;24.20;45.40;;;;;;4968540;28;20286;-83
2023/06/10 11:01:45;;;;;;;5.82;2.67;;;24.20;45.00;;;;;;4969068;28;20106;-82
2023/06/10 11:04:13;;;;;;;4.38;2.45;;;24.30;45.00;;;;;;4970603;28;20403;-82
2023/06/10 11:06:53;;;;;;;5.13;2.63;;;24.40;44.90;;;;;;4970935;28;20055;-83
2023/06/10 11:09:28;;;;;;;5.90;2.50;;;24.40;44.80;;;;;;4970519;28;20063;-82
2023/06/10 11:11:58;;;;;;;6.18;2.63;;;24.50;44.00;;;;;;4970359;28;21084;-82
2023/06/10 11:14:30;;;;;;;5.18;2.50;;;24.50;44.00;;;;;;4969300;28;20062;-81
2023/06/10 11:16:59;;;;;;;5.90;2.40;;;24.60;44.60;;;;;;4954107;28;20075;-79
2023/06/10 11:19:37;;;;;;;5.32;2.80;;;24.70;44.50;;;;;;4971536;28;20134;-81
2023/06/10 11:22:07;;;;;;;4.67;2.50;;;24.80;44.00;;;;;;4962668;28;20051;-81
2023/06/10 11:24:35;;;;;;;5.40;2.50;;;24.90;43.50;;;;;;4965642;28;20283;-80
2023/06/10 11:27:19;;;;;;;5.03;1.95;;;25.00;42.50;;;;;;4965038;28;20062;-81
2023/06/10 11:29:59;;;;;;;29.42;3.92;;;25.00;39.40;;;;;;4967738;28;20055;-81
2023/06/10 11:32:31;;;;;;;6.88;2.20;;;25.20;40.20;;;;;;4967207;28;20074;-81
2023/06/10 11:34:58;;;;;;;3.80;1.80;;;25.30;38.90;;;;;;4981557;28;20051;-81
2023/06/10 11:37:28;;;;;;;5.93;2.10;;;25.40;38.80;;;;;;4971553;28;22069;-84
2023/06/10 11:39:56;;;;;;;4.68;2.15;;;25.50;38.20;;;;;;4965583;28;20569;-84
2023/06/10 11:42:23;;;;;;;5.72;2.60;;;25.60;37.80;;;;;;4965340;28;20051;-83
2023/06/10 11:44:53;;;;;;;5.30;2.28;;;25.70;38.40;;;;;;4973400;28;20065;-82
2023/06/10 11:47:21;;;;;;;6.23;2.30;;;25.80;38.20;;;;;;4963334;28;20077;-82
2023/06/10 11:49:57;;;;;;;5.72;2.42;;;25.80;38.40;;;;;;4956984;28;20282;-82
2023/06/10 11:52:31;;;;;;;4.45;2.17;;;26.00;38.80;;;;;;4962487;28;20047;-83
2023/06/10 11:54:58;;;;;;;3.97;2.08;;;26.00;37.60;;;;;;4963282;28;20059;-83
2023/06/10 11:57:25;;;;;;;4.85;2.33;;;26.10;37.60;;;;;;4948956;28;20058;-83
2023/06/10 11:59:51;;;;;;;5.20;2.27;;;26.10;38.20;;;;;;4961859;28;20077;-83
2023/06/10 12:02:20;;;;;;;4.65;2.30;;;26.20;37.90;;;;;;4961979;28;20266;-82
2023/06/10 12:04:47;;;;;;;5.47;2.33;;;26.30;37.50;;;;;;4962931;28;20412;-83
2023/06/10 12:07:19;;;;;;;5.57;2.30;;;26.40;37.40;;;;;;4964372;28;20050;-84
2023/06/10 12:10:00;;;;;;;3.97;2.30;;;26.50;36.70;;;;;;4968666;28;20086;-86
2023/06/10 12:12:27;;;;;;;4.53;2.50;;;26.60;36.10;;;;;;4962676;28;20620;-86
2023/06/10 12:14:57;;;;;;;6.55;2.67;;;26.70;36.60;;;;;;4994167;28;20244;-85
2023/06/10 12:17:36;;;;;;;4.72;2.65;;;26.80;37.20;;;;;;4967450;28;20099;-81
2023/06/10 12:20:05;;;;;;;4.22;2.35;;;26.90;37.70;;;;;;4957952;28;20850;-82
2023/06/10 12:22:37;;;;;;;5.28;2.70;;;27.00;38.20;;;;;;4963414;28;20083;-82
2023/06/10 12:25:07;;;;;;;5.60;2.40;;;27.00;38.20;;;;;;4952893;28;20056;-82
2023/06/10 12:27:36;;;;;;;5.05;2.72;;;27.10;37.60;;;;;;4950515;28;20343;-83
2023/06/10 12:30:05;;;;;;;6.10;2.75;;;27.20;37.50;;;;;;4969481;28;20060;-84
2023/06/10 12:32:37;;;;;;;15.73;3.30;;;27.20;37.60;;;;;;4966371;28;20059;-83
2023/06/10 12:35:06;;;;;;;33.38;4.32;;;27.30;37.50;;;;;;4951970;28;20095;-83
2023/06/10 12:37:34;;;;;;;5.70;2.40;;;27.40;37.00;;;;;;4951532;28;20142;-83
2023/06/10 12:40:02;;;;;;;5.05;2.30;;;27.50;36.60;;;;;;4967569;28;20283;-83
2023/06/10 12:42:36;;;;;;;4.85;2.22;;;27.50;37.20;;;;;;4968701;28;20051;-83
2023/06/10 12:45:06;;;;;;;6.13;2.85;;;27.60;38.20;;;;;;4967887;28;20111;-83
2023/06/10 12:47:36;;;;;;;6.13;2.70;;;27.70;38.30;;;;;;4967817;28;20066;-82
2023/06/10 12:50:04;;;;;;;6.63;2.73;;;27.80;37.90;;;;;;4969399;28;20549;-83
2023/06/10 12:52:32;;;;;;;5.40;2.47;;;27.90;36.90;;;;;;4968631;28;20385;-83
2023/06/10 12:55:00;;;;;;;4.70;2.70;;;27.90;36.50;;;;;;4964011;28;20097;-83